createdAt,value
2022-12-23T00:01:24.304Z,5.96
2022-12-23T00:03:53.136Z,5.95
2022-12-23T00:06:21.376Z,5.93
2022-12-23T00:08:49.397Z,5.93
2022-12-23T00:11:19.947Z,5.94
2022-12-23T00:14:06.396Z,5.95
2022-12-23T00:16:37.397Z,5.96
2022-12-23T00:19:06.220Z,5.97
2022-12-23T00:21:35.891Z,5.95
2022-12-23T00:24:04.508Z,5.91
2022-12-23T00:26:32.358Z,5.90
2022-12-23T00:29:00.579Z,5.91
2022-12-23T00:31:28.827Z,5.90
2022-12-23T00:33:56.717Z,5.90
2022-12-23T00:36:28.008Z,5.92
2022-12-23T00:39:17.576Z,5.94
2022-12-23T00:42:04.814Z,5.98
2022-12-23T00:44:33.067Z,6.02
2022-12-23T00:47:00.990Z,6.06
2022-12-23T00:49:44.559Z,6.09
2022-12-23T00:52:15.750Z,6.12
2022-12-23T00:54:43.920Z,6.15
2022-12-23T00:57:12.142Z,6.18
2022-12-23T00:59:40.021Z,6.20
2022-12-23T01:02:30.179Z,6.21
2022-12-23T01:05:16.919Z,6.25
2022-12-23T01:07:45.059Z,6.30
2022-12-23T01:10:13.116Z,6.30
2022-12-23T01:12:41.290Z,6.32
2022-12-23T01:15:09.589Z,6.32
2022-12-23T01:17:37.724Z,6.32
2022-12-23T01:20:06.467Z,6.33
2022-12-23T01:22:34.337Z,6.33
2022-12-23T01:25:02.617Z,6.31
2022-12-23T01:27:30.917Z,6.32
2022-12-23T01:29:59.153Z,6.34
2022-12-23T01:32:27.235Z,6.34
2022-12-23T01:34:55.087Z,6.33
2022-12-23T01:37:23.544Z,6.36
2022-12-23T01:39:51.498Z,6.35
2022-12-23T01:42:39.787Z,6.33
2022-12-23T01:45:30.587Z,6.30
2022-12-23T01:47:58.538Z,6.30
2022-12-23T01:50:41.678Z,6.30
2022-12-23T01:53:19.645Z,6.31
2022-12-23T01:55:53.329Z,6.32
2022-12-23T01:58:27.525Z,6.32
2022-12-23T02:01:16.895Z,6.34
2022-12-23T02:03:46.973Z,6.36
2022-12-23T02:06:57.530Z,6.38
2022-12-23T02:09:34.309Z,6.38
2022-12-23T02:12:31.827Z,6.37
2022-12-23T02:15:27.874Z,6.38
2022-12-23T02:18:11.073Z,6.39
2022-12-23T02:20:59.963Z,6.40
2022-12-23T02:23:37.145Z,6.42
2022-12-23T02:26:30.078Z,6.44
2022-12-23T02:29:37.311Z,6.48
2022-12-23T02:32:16.780Z,6.53
2022-12-23T02:35:11.473Z,6.55
2022-12-23T02:37:48.259Z,6.55
2022-12-23T02:40:29.342Z,6.58
2022-12-23T02:43:12.503Z,6.62
2022-12-23T02:45:54.801Z,6.69
2022-12-23T02:48:35.287Z,6.74
2022-12-23T02:51:06.364Z,6.76
2022-12-23T02:53:56.611Z,6.79
2022-12-23T02:56:27.515Z,6.78
2022-12-23T02:59:00.958Z,6.78
2022-12-23T03:01:32.153Z,6.81
2022-12-23T03:04:00.544Z,6.84
2022-12-23T03:06:33.281Z,6.86
2022-12-23T03:09:01.610Z,6.87
2022-12-23T03:12:06.127Z,6.89
2022-12-23T03:15:05.289Z,6.90
2022-12-23T03:17:54.228Z,6.93
2022-12-23T03:20:39.276Z,6.95
2022-12-23T03:23:23.806Z,6.96
2022-12-23T03:26:14.239Z,6.95
2022-12-23T03:29:00.760Z,6.96
2022-12-23T03:31:31.805Z,6.98
2022-12-23T03:34:08.671Z,7.00
2022-12-23T03:36:49.405Z,6.99
2022-12-23T03:39:20.364Z,7.02
2022-12-23T03:41:54.115Z,6.99
2022-12-23T03:44:30.606Z,6.96
2022-12-23T03:47:07.088Z,6.96
2022-12-23T03:50:11.620Z,6.97
2022-12-23T03:52:45.804Z,6.97
2022-12-23T03:55:20.842Z,6.99
2022-12-23T03:57:58.367Z,7.02
2022-12-23T04:00:30.574Z,7.05
2022-12-23T04:03:22.050Z,7.08
2022-12-23T04:05:57.421Z,7.07
2022-12-23T04:08:37.617Z,7.06
2022-12-23T04:11:06.329Z,7.08
2022-12-23T04:13:34.670Z,7.08
2022-12-23T04:16:03.186Z,7.09
2022-12-23T04:18:31.565Z,7.10
2022-12-23T04:20:59.746Z,7.11
2022-12-23T04:23:27.675Z,7.11
2022-12-23T04:25:56.177Z,7.13
2022-12-23T04:28:24.314Z,7.13
2022-12-23T04:30:52.523Z,7.16
2022-12-23T04:33:20.419Z,7.17
2022-12-23T04:35:48.317Z,7.17
2022-12-23T04:38:16.533Z,7.17
2022-12-23T04:40:47.814Z,7.15
2022-12-23T04:43:16.068Z,7.14
2022-12-23T04:45:43.972Z,7.13
2022-12-23T04:48:12.194Z,7.10
2022-12-23T04:50:40.222Z,7.09
2022-12-23T04:53:08.342Z,7.09
2022-12-23T04:55:36.255Z,7.11
2022-12-23T04:58:04.633Z,7.15
2022-12-23T05:00:39.117Z,7.18
2022-12-23T05:03:08.026Z,7.16
2022-12-23T05:05:36.357Z,7.09
2022-12-23T05:08:05.489Z,7.05
2022-12-23T05:10:33.481Z,7.08
2022-12-23T05:13:01.615Z,7.12
2022-12-23T05:15:33.096Z,7.10
2022-12-23T05:18:01.337Z,7.09
2022-12-23T05:20:29.277Z,7.12
2022-12-23T05:22:57.792Z,7.14
2022-12-23T05:25:25.702Z,7.16
2022-12-23T05:27:53.691Z,7.18
2022-12-23T05:30:21.967Z,7.19
2022-12-23T05:32:54.316Z,7.19
2022-12-23T05:35:23.776Z,7.17
2022-12-23T05:37:52.134Z,7.18
2022-12-23T05:40:23.879Z,7.19
2022-12-23T05:42:53.520Z,7.19
2022-12-23T05:45:21.621Z,7.20
2022-12-23T05:47:49.563Z,7.20
2022-12-23T05:50:17.540Z,7.22
2022-12-23T05:52:45.823Z,7.24
2022-12-23T05:55:14.057Z,7.26
2022-12-23T05:57:42.039Z,7.27
2022-12-23T06:00:10.937Z,7.28
2022-12-23T06:02:42.097Z,7.29
2022-12-23T06:05:11.865Z,7.31
2022-12-23T06:07:40.687Z,7.34
2022-12-23T06:10:10.507Z,7.36
2022-12-23T06:12:38.840Z,7.37
2022-12-23T06:15:07.860Z,7.39
2022-12-23T06:17:35.860Z,7.40
2022-12-23T06:20:04.671Z,7.42
2022-12-23T06:22:32.933Z,7.42
2022-12-23T06:25:00.954Z,7.40
2022-12-23T06:27:28.950Z,7.39
2022-12-23T06:29:57.330Z,7.37
2022-12-23T06:32:25.506Z,7.36
2022-12-23T06:34:53.820Z,7.36
2022-12-23T06:37:21.839Z,7.35
2022-12-23T06:39:49.875Z,7.35
2022-12-23T06:42:17.763Z,7.37
2022-12-23T06:44:45.751Z,7.39
2022-12-23T06:47:13.789Z,7.40
2022-12-23T06:49:41.906Z,7.42
2022-12-23T06:52:10.420Z,7.44
2022-12-23T06:54:38.579Z,7.48
2022-12-23T06:57:06.591Z,7.51
2022-12-23T06:59:34.801Z,7.52
2022-12-23T07:02:03.666Z,7.52
2022-12-23T07:04:31.973Z,7.54
2022-12-23T07:07:00.176Z,7.55
2022-12-23T07:09:28.161Z,7.59
2022-12-23T07:11:56.023Z,7.60
2022-12-23T07:14:24.191Z,7.61
2022-12-23T07:16:52.237Z,7.60
2022-12-23T07:19:20.402Z,7.57
2022-12-23T07:21:48.378Z,7.54
2022-12-23T07:24:17.066Z,7.54
2022-12-23T07:26:45.041Z,7.51
2022-12-23T07:29:13.164Z,7.51
2022-12-23T07:31:41.781Z,7.50
2022-12-23T07:34:10.140Z,7.51
2022-12-23T07:36:38.078Z,7.52
2022-12-23T07:39:06.796Z,7.54
2022-12-23T07:41:34.714Z,7.55
2022-12-23T07:44:09.002Z,7.56
2022-12-23T07:46:38.036Z,7.56
2022-12-23T07:49:06.522Z,7.56
2022-12-23T07:51:34.406Z,7.55
2022-12-23T07:54:02.914Z,7.54
2022-12-23T07:56:30.940Z,7.55
2022-12-23T07:58:58.816Z,7.55
2022-12-23T08:01:27.176Z,7.55
2022-12-23T08:03:55.278Z,7.54
2022-12-23T08:06:23.620Z,7.51
2022-12-23T08:08:51.509Z,7.45
2022-12-23T08:11:19.993Z,7.42
2022-12-23T08:13:49.257Z,7.38
2022-12-23T08:16:17.409Z,7.34
2022-12-23T08:18:45.783Z,7.34
2022-12-23T08:21:19.639Z,7.36
2022-12-23T08:23:48.527Z,7.34
2022-12-23T08:26:19.477Z,7.36
2022-12-23T08:28:48.830Z,7.37
2022-12-23T08:31:21.039Z,7.37
2022-12-23T08:33:52.068Z,7.37
2022-12-23T08:36:23.611Z,7.37
2022-12-23T08:38:54.722Z,7.39
2022-12-23T08:41:29.586Z,7.43
2022-12-23T08:43:57.779Z,7.47
2022-12-23T08:46:26.764Z,7.51
2022-12-23T08:48:55.379Z,7.53
2022-12-23T08:51:25.092Z,7.57
2022-12-23T08:54:01.070Z,7.58
2022-12-23T08:56:32.401Z,7.59
2022-12-23T08:59:00.885Z,7.60
2022-12-23T09:01:31.621Z,7.61
2022-12-23T09:04:06.051Z,7.62
2022-12-23T09:06:43.423Z,7.61
2022-12-23T09:09:15.681Z,7.59
2022-12-23T09:11:44.222Z,7.59
2022-12-23T09:14:12.606Z,7.59
2022-12-23T09:16:40.804Z,7.61
2022-12-23T09:19:09.408Z,7.62
2022-12-23T09:21:37.621Z,7.61
2022-12-23T09:24:06.280Z,7.62
2022-12-23T09:26:34.194Z,7.64
2022-12-23T09:29:02.314Z,7.66
2022-12-23T09:31:36.242Z,7.69
2022-12-23T09:34:05.697Z,7.70
2022-12-23T09:36:34.153Z,7.82
2022-12-23T09:39:02.382Z,8.40
2022-12-23T09:41:48.718Z,8.61
2022-12-23T09:44:25.978Z,8.51
2022-12-23T09:47:01.769Z,8.40
2022-12-23T09:49:29.949Z,8.32
2022-12-23T09:52:04.670Z,8.21
2022-12-23T09:54:46.407Z,8.18
2022-12-23T09:57:23.883Z,8.15
2022-12-23T10:00:06.961Z,8.12
2022-12-23T10:02:53.864Z,8.12
2022-12-23T10:05:53.575Z,8.12
2022-12-23T10:08:33.678Z,8.11
2022-12-23T10:11:10.972Z,8.09
2022-12-23T10:13:43.772Z,8.05
2022-12-23T10:16:19.525Z,8.03
2022-12-23T10:18:53.886Z,7.99
2022-12-23T10:21:47.541Z,7.92
2022-12-23T10:24:25.403Z,7.88
2022-12-23T10:27:06.561Z,7.85
2022-12-23T10:29:34.675Z,7.91
2022-12-23T10:32:11.936Z,7.95
2022-12-23T10:34:42.864Z,8.00
2022-12-23T10:37:34.897Z,8.01
2022-12-23T10:40:27.721Z,8.01
2022-12-23T10:43:04.742Z,7.99
2022-12-23T10:45:35.277Z,7.97
2022-12-23T10:48:06.073Z,7.98
2022-12-23T10:50:37.020Z,8.01
2022-12-23T10:53:10.545Z,8.03
2022-12-23T10:55:39.541Z,8.06
2022-12-23T10:58:18.474Z,8.10
2022-12-23T11:00:52.584Z,8.14
2022-12-23T11:03:32.052Z,8.19
2022-12-23T11:06:01.329Z,8.22
2022-12-23T11:08:31.467Z,8.19
2022-12-23T11:11:01.182Z,8.17
2022-12-23T11:13:32.310Z,8.14
2022-12-23T11:16:24.110Z,8.09
2022-12-23T11:19:00.961Z,8.05
2022-12-23T11:21:30.845Z,8.02
2022-12-23T11:24:06.972Z,8.00
2022-12-23T11:26:36.091Z,8.03
2022-12-23T11:29:11.446Z,8.08
2022-12-23T11:31:42.648Z,8.13
2022-12-23T11:34:15.915Z,8.20
2022-12-23T11:36:54.694Z,8.26
2022-12-23T11:39:28.065Z,8.33
2022-12-23T11:42:27.380Z,8.40
2022-12-23T11:44:59.630Z,8.48
2022-12-23T11:47:34.028Z,8.54
2022-12-23T11:50:20.692Z,8.60
2022-12-23T11:52:55.776Z,8.68
2022-12-23T11:55:30.160Z,9.17
2022-12-23T11:58:00.588Z,9.46
2022-12-23T12:00:40.794Z,9.44
2022-12-23T12:03:19.080Z,9.37
2022-12-23T12:05:51.698Z,9.30
2022-12-23T12:08:24.862Z,9.26
2022-12-23T12:11:00.726Z,9.23
2022-12-23T12:13:32.560Z,9.20
2022-12-23T12:16:12.456Z,9.16
2022-12-23T12:18:43.648Z,9.16
2022-12-23T12:21:16.598Z,9.18
2022-12-23T12:24:14.839Z,9.19
2022-12-23T12:26:44.379Z,9.18
2022-12-23T12:29:16.843Z,9.16
2022-12-23T12:31:51.638Z,9.13
2022-12-23T12:34:23.523Z,9.16
2022-12-23T12:37:10.618Z,9.20
2022-12-23T12:39:48.956Z,9.25
2022-12-23T12:42:27.729Z,9.30
2022-12-23T12:44:59.865Z,9.34
2022-12-23T12:48:01.418Z,9.34
2022-12-23T12:50:34.623Z,9.30
2022-12-23T12:53:13.050Z,9.26
2022-12-23T12:55:46.277Z,9.21
2022-12-23T12:58:23.792Z,9.14
2022-12-23T13:01:18.861Z,9.10
2022-12-23T13:04:20.737Z,9.08
2022-12-23T13:07:23.671Z,9.09
2022-12-23T13:10:06.349Z,9.08
2022-12-23T13:12:54.082Z,9.08
2022-12-23T13:15:28.274Z,9.08
2022-12-23T13:18:03.464Z,9.10
2022-12-23T13:20:39.698Z,9.11
2022-12-23T13:23:42.428Z,9.14
2022-12-23T13:26:18.380Z,9.12
2022-12-23T13:29:03.715Z,9.13
2022-12-23T13:32:01.772Z,9.15
2022-12-23T13:34:42.493Z,9.17
2022-12-23T13:37:10.421Z,9.18
2022-12-23T13:39:55.331Z,9.17
2022-12-23T13:42:35.393Z,9.15
2022-12-23T13:45:05.899Z,9.12
2022-12-23T13:48:05.348Z,9.10
2022-12-23T13:50:40.435Z,9.09
2022-12-23T13:53:53.579Z,9.10
2022-12-23T13:56:35.071Z,9.10
2022-12-23T13:59:03.227Z,9.12
2022-12-23T14:01:44.004Z,9.12
2022-12-23T14:04:32.927Z,9.11
2022-12-23T14:07:18.143Z,9.08
2022-12-23T14:09:53.500Z,9.02
2022-12-23T14:12:39.261Z,8.98
2022-12-23T14:15:35.549Z,8.96
2022-12-23T14:18:04.866Z,8.92
2022-12-23T14:20:45.036Z,8.91
2022-12-23T14:23:41.190Z,8.89
2022-12-23T14:26:27.527Z,8.88
2022-12-23T14:29:14.247Z,8.86
2022-12-23T14:31:55.474Z,8.84
2022-12-23T14:34:32.835Z,8.84
2022-12-23T14:37:25.477Z,8.87
2022-12-23T14:39:54.302Z,8.88
2022-12-23T14:42:40.283Z,8.88
2022-12-23T14:45:35.673Z,8.89
2022-12-23T14:48:42.134Z,8.90
2022-12-23T14:51:10.126Z,8.89
2022-12-23T14:53:58.520Z,8.89
2022-12-23T14:56:47.432Z,8.87
2022-12-23T14:59:37.863Z,8.82
2022-12-23T15:02:22.155Z,8.81
2022-12-23T15:04:56.088Z,8.81
2022-12-23T15:07:46.714Z,8.81
2022-12-23T15:10:25.789Z,8.79
2022-12-23T15:12:58.310Z,8.77
2022-12-23T15:15:29.857Z,8.77
2022-12-23T15:18:07.016Z,8.79
2022-12-23T15:20:35.300Z,8.80
2022-12-23T15:23:10.363Z,8.80
2022-12-23T15:25:46.122Z,8.83
2022-12-23T15:28:22.838Z,8.82
2022-12-23T15:30:56.469Z,8.81
2022-12-23T15:36:30.648Z,8.80
2022-12-23T15:39:00.893Z,8.80
2022-12-23T15:41:30.022Z,8.81
2022-12-23T15:44:01.871Z,8.81
2022-12-23T15:46:32.129Z,8.80
2022-12-23T15:49:00.191Z,8.79
2022-12-23T15:52:07.273Z,8.79
2022-12-23T15:54:40.244Z,8.78
2022-12-23T15:57:12.144Z,8.76
2022-12-23T15:59:40.388Z,8.74
2022-12-23T16:02:58.447Z,8.71
2022-12-23T16:05:07.959Z,8.66
2022-12-23T16:07:41.129Z,8.61
2022-12-23T16:10:36.088Z,8.55
2022-12-23T16:13:04.400Z,8.50
2022-12-23T16:15:33.395Z,8.46
2022-12-23T16:18:21.711Z,8.44
2022-12-23T16:20:57.772Z,8.41
2022-12-23T16:23:30.242Z,8.37
2022-12-23T16:26:00.644Z,8.33
2022-12-23T16:28:41.026Z,8.30
2022-12-23T16:31:11.005Z,8.30
2022-12-23T16:33:46.016Z,8.29
2022-12-23T16:36:15.056Z,8.30
2022-12-23T16:38:43.326Z,8.30
2022-12-23T16:41:11.303Z,8.30
2022-12-23T16:43:40.730Z,8.32
2022-12-23T16:46:17.431Z,8.32
2022-12-23T16:49:00.587Z,8.33
2022-12-23T16:51:33.622Z,8.35
2022-12-23T16:54:02.166Z,8.36
2022-12-23T16:56:35.393Z,8.37
2022-12-23T16:59:04.460Z,8.39
2022-12-23T17:01:35.188Z,8.42
2022-12-23T17:04:03.485Z,8.46
2022-12-23T17:06:31.869Z,8.48
2022-12-23T17:08:59.816Z,8.49
2022-12-23T17:11:41.801Z,8.48
2022-12-23T17:14:16.682Z,8.47
2022-12-23T17:16:46.041Z,8.47
2022-12-23T17:19:15.627Z,8.47
2022-12-23T17:21:46.109Z,8.47
2022-12-23T17:24:21.991Z,8.48
2022-12-23T17:26:51.364Z,8.49
2022-12-23T17:29:20.227Z,8.49
2022-12-23T17:31:49.042Z,8.50
2022-12-23T17:34:23.004Z,8.51
2022-12-23T17:36:51.485Z,8.52
2022-12-23T17:39:20.516Z,8.52
2022-12-23T17:41:48.783Z,8.55
2022-12-23T17:44:18.222Z,8.57
2022-12-23T17:46:47.314Z,8.61
2022-12-23T17:49:15.533Z,8.63
2022-12-23T17:51:44.028Z,8.65
2022-12-23T17:54:21.703Z,8.68
2022-12-23T17:56:51.036Z,8.68
2022-12-23T17:59:19.221Z,8.69
2022-12-23T18:01:47.320Z,8.70
2022-12-23T18:04:15.680Z,8.73
2022-12-23T18:06:43.985Z,8.76
2022-12-23T18:09:11.931Z,8.79
2022-12-23T18:11:44.037Z,8.82
2022-12-23T18:14:19.791Z,8.83
2022-12-23T18:16:48.071Z,8.83
2022-12-23T18:19:19.847Z,8.83
2022-12-23T18:21:48.445Z,8.83
2022-12-23T18:24:16.851Z,8.86
2022-12-23T18:26:45.847Z,8.89
2022-12-23T18:29:14.210Z,8.91
2022-12-23T18:31:50.964Z,8.92
2022-12-23T18:34:20.476Z,8.93
2022-12-23T18:36:48.985Z,8.93
2022-12-23T18:39:17.828Z,8.94
2022-12-23T18:41:46.132Z,8.95
2022-12-23T18:44:21.461Z,8.97
2022-12-23T18:46:50.050Z,9.01
2022-12-23T18:49:18.142Z,9.04
2022-12-23T18:51:46.476Z,9.06
2022-12-23T18:54:16.149Z,9.07
2022-12-23T18:56:44.288Z,9.07
2022-12-23T18:59:22.535Z,9.07
2022-12-23T19:01:56.770Z,9.07
2022-12-23T19:04:26.168Z,9.09
2022-12-23T19:06:56.384Z,9.11
2022-12-23T19:09:25.200Z,9.12
2022-12-23T19:11:54.362Z,9.13
2022-12-23T19:14:22.784Z,9.14
2022-12-23T19:16:52.344Z,9.14
2022-12-23T19:19:22.032Z,9.13
2022-12-23T19:21:50.066Z,9.12
2022-12-23T19:24:18.155Z,9.11
2022-12-23T19:26:46.355Z,9.14
2022-12-23T19:29:14.530Z,9.17
2022-12-23T19:31:42.500Z,9.18
2022-12-23T19:34:14.931Z,9.22
2022-12-23T19:36:44.286Z,9.22
2022-12-23T19:39:16.631Z,9.21
2022-12-23T19:41:45.553Z,9.22
2022-12-23T19:44:14.385Z,9.24
2022-12-23T19:46:42.554Z,9.27
2022-12-23T19:49:17.596Z,9.29
2022-12-23T19:51:48.485Z,9.31
2022-12-23T19:54:17.794Z,9.33
2022-12-23T19:56:46.100Z,9.33
2022-12-23T19:59:14.137Z,9.33
2022-12-23T20:01:42.615Z,9.33
2022-12-23T20:04:10.989Z,9.33
2022-12-23T20:06:41.127Z,9.34
2022-12-23T20:09:12.540Z,9.35
2022-12-23T20:11:43.648Z,9.37
2022-12-23T20:14:13.793Z,9.39
2022-12-23T20:16:42.832Z,9.38
2022-12-23T20:19:11.192Z,9.37
2022-12-23T20:21:39.670Z,9.32
2022-12-23T20:24:08.349Z,9.27
2022-12-23T20:26:36.548Z,9.27
2022-12-23T20:29:05.947Z,9.28
2022-12-23T20:31:38.133Z,9.27
2022-12-23T20:34:07.819Z,9.26
2022-12-23T20:36:36.937Z,9.24
2022-12-23T20:39:06.307Z,9.21
2022-12-23T20:41:34.655Z,9.18
2022-12-23T20:44:34.061Z,9.14
2022-12-23T20:46:51.020Z,9.11
2022-12-23T20:49:19.103Z,9.11
2022-12-23T20:51:47.458Z,9.12
2022-12-23T20:54:15.613Z,9.13
2022-12-23T20:56:43.617Z,9.13
2022-12-23T20:59:12.051Z,9.13
2022-12-23T21:01:41.665Z,9.11
2022-12-23T21:04:13.234Z,9.07
2022-12-23T21:06:42.290Z,9.03
2022-12-23T21:09:13.107Z,8.99
2022-12-23T21:11:44.460Z,8.98
2022-12-23T21:14:14.996Z,8.98
2022-12-23T21:16:43.879Z,8.96
2022-12-23T21:19:19.726Z,8.95
2022-12-23T21:21:48.736Z,8.94
2022-12-23T21:24:18.123Z,8.91
2022-12-23T21:26:51.874Z,8.87
2022-12-23T21:29:24.488Z,8.82
2022-12-23T21:31:52.544Z,8.80
2022-12-23T21:34:20.949Z,8.79
2022-12-23T21:36:49.225Z,8.77
2022-12-23T21:39:17.426Z,8.74
2022-12-23T21:41:46.336Z,8.71
2022-12-23T21:44:15.028Z,8.67
2022-12-23T21:46:43.823Z,8.63
2022-12-23T21:49:13.251Z,8.63
2022-12-23T21:51:41.953Z,8.64
2022-12-23T21:54:11.504Z,8.63
2022-12-23T21:56:40.474Z,8.61
2022-12-23T21:59:12.825Z,8.61
2022-12-23T22:01:43.014Z,8.58
2022-12-23T22:04:12.392Z,8.55
2022-12-23T22:06:44.070Z,8.53
2022-12-23T22:09:16.347Z,8.50
2022-12-23T22:11:45.744Z,8.50
2022-12-23T22:14:19.904Z,8.52
2022-12-23T22:16:48.480Z,8.54
2022-12-23T22:19:16.578Z,8.56
2022-12-23T22:21:45.088Z,8.57
2022-12-23T22:24:13.497Z,8.57
2022-12-23T22:26:42.223Z,8.55
2022-12-23T22:29:11.511Z,8.52
2022-12-23T22:31:44.788Z,8.49
2022-12-23T22:34:16.744Z,8.46
2022-12-23T22:36:45.139Z,8.45
2022-12-23T22:39:20.079Z,8.46
2022-12-23T22:41:51.005Z,8.44
2022-12-23T22:44:20.802Z,8.43
2022-12-23T22:46:48.958Z,8.44
2022-12-23T22:49:17.339Z,8.44
2022-12-23T22:51:45.929Z,8.42
2022-12-23T22:54:14.452Z,8.40
2022-12-23T22:56:42.587Z,8.41
2022-12-23T22:59:19.683Z,8.43
2022-12-23T23:01:49.310Z,8.44
2022-12-23T23:04:18.075Z,8.45
2022-12-23T23:06:46.184Z,8.45
2022-12-23T23:09:18.048Z,8.43
2022-12-23T23:11:46.735Z,8.40
2022-12-23T23:14:15.096Z,8.36
2022-12-23T23:16:43.400Z,8.33
2022-12-23T23:19:12.490Z,8.32
2022-12-23T23:21:40.670Z,8.34
2022-12-23T23:24:08.929Z,8.37
2022-12-23T23:26:37.651Z,8.40
2022-12-23T23:29:05.716Z,8.43
2022-12-23T23:31:42.727Z,8.45
2022-12-23T23:34:12.785Z,8.47
2022-12-23T23:36:42.093Z,8.48
2022-12-23T23:39:12.618Z,8.50
2022-12-23T23:41:41.456Z,8.53
2022-12-23T23:44:10.374Z,8.59
2022-12-23T23:46:39.498Z,8.62
2022-12-23T23:49:07.404Z,8.66
2022-12-23T23:51:35.678Z,8.69
2022-12-23T23:54:03.942Z,8.70
2022-12-23T23:56:37.817Z,8.70
2022-12-23T23:59:09.222Z,8.68
